Time;durP1;ratioP1;P1;durP2;ratioP2;P2;SDS_P1;SDS_P2;PMS_P1;PMS_P2;Temp;Humidity;BMP_temperature;BMP_pressure;BME280_temperature;BME280_humidity;BME280_pressure;Samples;Min_cycle;Max_cycle;Signal;HPM_P1;HPM_P2
2022/06/18 00:00:32;;;;;;;12.30;6.70;;;;;;;16.63;58.49;100620.98;106256;1270;140170;-65
2022/06/18 00:03:09;;;;;;;10.80;6.80;;;;;;;16.62;58.60;100616.46;106237;1270;112670;-66
2022/06/18 00:05:40;;;;;;;13.30;7.60;;;;;;;16.62;58.83;100614.38;106211;1271;139691;-66
2022/06/18 00:08:14;;;;;;;12.70;7.90;;;;;;;16.61;58.93;100614.09;106358;1270;109057;-66
2022/06/18 00:10:44;;;;;;;14.90;8.20;;;;;;;16.55;58.96;100617.70;106346;1270;97899;-65
2022/06/18 00:13:41;;;;;;;12.00;7.60;;;;;;;16.54;59.07;100617.27;106238;1270;140500;-66
2022/06/18 00:16:12;;;;;;;13.30;7.40;;;;;;;16.52;59.15;100615.59;106354;1270;112295;-66
2022/06/18 00:18:41;;;;;;;12.60;7.80;;;;;;;16.50;59.28;100619.01;107737;1270;139103;-66
2022/06/18 00:21:15;;;;;;;12.90;7.90;;;;;;;16.46;59.31;100615.35;107825;1270;109447;-66
2022/06/18 00:23:44;;;;;;;13.70;8.40;;;;;;;16.40;59.38;100615.33;107768;1270;138957;-66
2022/06/18 00:26:12;;;;;;;13.10;8.40;;;;;;;16.34;59.31;100618.59;107839;1268;97169;-66
2022/06/18 00:28:42;;;;;;;12.20;8.20;;;;;;;16.26;59.52;100615.63;107899;1270;112454;-67
2022/06/18 00:31:10;;;;;;;13.00;7.90;;;;;;;16.23;59.69;100619.17;107817;1268;138839;-67
2022/06/18 00:33:40;;;;;;;11.60;8.20;;;;;;;16.16;59.71;100622.98;107855;1269;108076;-66
2022/06/18 00:36:16;;;;;;;15.80;8.10;;;;;;;16.13;59.86;100621.73;107228;1270;139271;-65
2022/06/18 00:38:48;;;;;;;10.70;8.10;;;;;;;16.09;59.92;100622.66;106414;1270;97862;-65
2022/06/18 00:41:21;;;;;;;14.40;8.80;;;;;;;16.05;60.05;100625.33;106253;1268;139018;-65
2022/06/18 00:43:54;;;;;;;13.60;8.50;;;;;;;16.01;60.14;100624.63;106896;1271;109444;-66
2022/06/18 00:46:30;;;;;;;14.10;9.20;;;;;;;15.98;60.14;100623.90;106350;1270;108817;-66
2022/06/18 00:49:05;;;;;;;15.00;9.90;;;;;;;15.94;60.27;100624.95;107768;1270;139369;-65
2022/06/18 00:51:42;;;;;;;17.80;9.80;;;;;;;15.91;60.32;100624.26;106540;1270;97829;-65
2022/06/18 00:54:19;;;;;;;11.10;8.60;;;;;;;15.88;60.29;100620.00;107794;1270;138927;-66
2022/06/18 00:56:59;;;;;;;11.70;8.40;;;;;;;15.90;60.27;100625.17;107892;1270;109523;-66
2022/06/18 00:59:34;;;;;;;12.50;9.10;;;;;;;15.93;60.24;100620.42;107726;1270;139536;-66
2022/06/18 01:02:04;;;;;;;11.20;8.20;;;;;;;15.95;60.24;100618.41;107821;1270;96261;-66
2022/06/18 01:04:34;;;;;;;10.40;8.00;;;;;;;15.97;60.00;100617.27;107831;1270;96080;-66
2022/06/18 01:07:07;;;;;;;12.50;7.70;;;;;;;15.97;59.98;100619.20;107668;1270;142135;-66
2022/06/18 01:09:36;;;;;;;13.30;8.00;;;;;;;15.98;59.88;100614.77;107852;1270;106831;-66
2022/06/18 01:12:06;;;;;;;11.40;7.60;;;;;;;15.98;59.84;100615.49;107644;1270;139252;-67
2022/06/18 01:14:35;;;;;;;13.00;8.80;;;;;;;15.95;59.79;100616.84;107772;1271;96150;-66
2022/06/18 01:17:06;;;;;;;11.90;8.40;;;;;;;15.94;59.96;100620.59;107675;1270;139545;-66
2022/06/18 01:19:37;;;;;;;12.90;8.10;;;;;;;15.93;59.95;100613.42;107823;1270;112748;-66
2022/06/18 01:22:21;;;;;;;12.30;7.50;;;;;;;15.92;59.97;100610.51;107790;1270;107999;-66
2022/06/18 01:24:49;;;;;;;11.70;7.40;;;;;;;15.87;59.82;100604.96;107676;1270;140501;-65
2022/06/18 01:27:18;;;;;;;10.60;7.70;;;;;;;15.84;59.77;100603.36;107747;1271;95969;-66
2022/06/18 01:29:49;;;;;;;9.10;7.10;;;;;;;15.83;59.83;100597.49;107375;1271;139110;-66
2022/06/18 01:32:20;;;;;;;9.60;7.00;;;;;;;15.81;59.75;100594.56;106567;1271;112665;-67
2022/06/18 01:34:51;;;;;;;12.30;7.30;;;;;;;15.81;59.83;100597.39;106206;1272;108882;-65
2022/06/18 01:37:20;;;;;;;11.60;7.70;;;;;;;15.80;59.75;100595.69;106403;1270;108948;-65
2022/06/18 01:39:50;;;;;;;13.10;8.10;;;;;;;15.78;59.79;100592.29;106384;1271;97853;-65
2022/06/18 01:42:24;;;;;;;14.10;7.20;;;;;;;15.76;59.94;100589.37;106261;1270;139370;-66
2022/06/18 01:44:57;;;;;;;11.40;6.90;;;;;;;15.71;59.88;100588.91;107758;1271;112571;-66
2022/06/18 01:47:41;;;;;;;9.60;7.10;;;;;;;15.66;59.98;100586.89;107682;1270;139940;-66
2022/06/18 01:50:13;;;;;;;9.60;6.90;;;;;;;15.61;59.90;100582.70;107848;1269;109096;-67
2022/06/18 01:52:50;;;;;;;9.20;7.10;;;;;;;15.58;59.81;100587.05;107787;1270;96125;-66
2022/06/18 01:55:25;;;;;;;12.70;7.30;;;;;;;15.55;59.90;100586.83;106674;1270;97843;-66
2022/06/18 01:57:58;;;;;;;11.90;7.20;;;;;;;15.54;60.03;100584.61;106453;1270;110994;-66
2022/06/18 02:00:29;;;;;;;13.40;8.90;;;;;;;15.50;60.01;100584.79;107693;1271;138882;-66
2022/06/18 02:03:03;;;;;;;9.70;7.20;;;;;;;15.48;60.02;100585.08;106359;1270;107854;-67
2022/06/18 02:05:33;;;;;;;11.80;8.00;;;;;;;15.45;60.02;100586.77;106196;1271;139989;-66
2022/06/18 02:08:03;;;;;;;9.60;6.60;;;;;;;15.42;60.06;100580.75;106293;1270;98558;-66
2022/06/18 02:10:39;;;;;;;8.50;6.50;;;;;;;15.40;60.06;100575.23;106356;1271;112488;-66
2022/06/18 02:13:09;;;;;;;10.80;6.50;;;;;;;15.36;60.12;100573.86;106246;1270;140955;-66
2022/06/18 02:15:41;;;;;;;10.40;6.10;;;;;;;15.34;60.12;100569.95;107842;1270;108959;-66
2022/06/18 02:18:13;;;;;;;7.80;6.20;;;;;;;15.31;60.21;100570.63;107206;1271;138913;-66
2022/06/18 02:20:46;;;;;;;9.30;6.40;;;;;;;15.29;60.13;100567.41;106227;1271;97906;-65
2022/06/18 02:23:17;;;;;;;8.80;6.10;;;;;;;15.29;60.14;100566.72;106278;1270;138736;-66
2022/06/18 02:25:46;;;;;;;10.90;6.20;;;;;;;15.27;60.18;100565.20;106405;1270;108934;-66
2022/06/18 02:28:21;;;;;;;8.70;6.20;;;;;;;15.28;60.11;100566.07;107229;1270;108739;-67
2022/06/18 02:30:52;;;;;;;7.00;5.70;;;;;;;15.27;60.09;100563.29;107080;1270;139354;-64
2022/06/18 02:33:29;;;;;;;9.40;5.10;;;;;;;15.28;60.04;100559.19;106419;1270;97736;-65
2022/06/18 02:36:06;;;;;;;8.30;5.70;;;;;;;15.31;59.89;100557.85;106303;1270;138893;-65
2022/06/18 02:38:35;;;;;;;8.70;5.70;;;;;;;15.32;59.91;100555.85;106403;1271;108848;-66
2022/06/18 02:41:03;;;;;;;8.30;5.90;;;;;;;15.33;59.82;100555.13;106246;1270;139109;-66
2022/06/18 02:43:33;;;;;;;7.20;5.60;;;;;;;15.33;59.89;100554.56;106373;1270;98482;-65
2022/06/18 02:46:04;;;;;;;8.50;5.60;;;;;;;15.33;59.80;100548.27;107901;1269;96291;-66
2022/06/18 02:48:35;;;;;;;8.30;5.80;;;;;;;15.34;59.65;100547.71;107733;1271;138461;-66
2022/06/18 02:51:05;;;;;;;7.10;5.10;;;;;;;15.35;59.58;100547.65;107878;1268;108035;-65
2022/06/18 02:53:34;;;;;;;7.30;5.30;;;;;;;15.36;59.59;100547.23;106318;1271;138949;-65
2022/06/18 02:56:05;;;;;;;7.30;5.00;;;;;;;15.39;59.41;100544.81;106424;1271;97845;-67
2022/06/18 02:58:37;;;;;;;7.20;5.10;;;;;;;15.45;59.40;100544.04;106497;1269;97848;-64
2022/06/18 03:01:08;;;;;;;6.90;5.20;;;;;;;15.49;59.20;100544.75;106162;1270;139748;-64
2022/06/18 03:03:39;;;;;;;6.40;5.00;;;;;;;15.53;59.20;100548.54;106437;1271;109624;-66
2022/06/18 03:06:08;;;;;;;8.80;5.30;;;;;;;15.58;58.99;100551.30;106123;1271;139128;-66
2022/06/18 03:08:38;;;;;;;6.90;5.60;;;;;;;15.61;58.84;100553.27;106375;1271;97828;-67
2022/06/18 03:13:55;;;;;;;7.40;5.70;;;;;;;15.69;58.94;100559.72;106385;1271;112541;-66
2022/06/18 03:16:26;;;;;;;8.30;5.20;;;;;;;15.70;58.99;100561.23;106359;1270;108638;-66
2022/06/18 03:18:58;;;;;;;8.30;5.60;;;;;;;15.74;58.98;100564.76;107484;1270;138924;-66
2022/06/18 03:21:32;;;;;;;7.00;5.60;;;;;;;15.79;58.97;100563.80;106792;1271;97798;-66
2022/06/18 03:24:01;;;;;;;8.40;5.30;;;;;;;15.83;59.00;100562.89;106237;1271;138753;-66
2022/06/18 03:26:31;;;;;;;7.00;5.30;;;;;;;15.87;59.02;100562.73;106326;1271;111978;-67
2022/06/18 03:29:00;;;;;;;6.20;5.10;;;;;;;15.89;58.96;100562.59;106305;1268;138960;-66
2022/06/18 03:31:29;;;;;;;9.10;4.90;;;;;;;15.93;58.82;100566.26;107831;1271;107822;-66
2022/06/18 03:33:58;;;;;;;6.40;4.60;;;;;;;15.95;58.76;100571.61;106888;1271;97870;-66
2022/06/18 03:36:27;;;;;;;5.60;4.30;;;;;;;15.98;58.58;100569.02;107102;1269;140215;-66
2022/06/18 03:38:56;;;;;;;6.20;4.70;;;;;;;16.03;58.53;100566.31;107810;1271;111661;-66
2022/06/18 03:41:24;;;;;;;6.50;5.10;;;;;;;16.09;58.57;100565.32;106617;1271;139064;-66
2022/06/18 03:43:54;;;;;;;6.60;4.80;;;;;;;16.15;58.88;100560.62;107845;1268;107250;-66
2022/06/18 03:46:23;;;;;;;6.40;5.20;;;;;;;16.23;58.92;100557.59;107792;1270;95971;-65
2022/06/18 03:48:54;;;;;;;8.80;4.90;;;;;;;16.28;58.86;100555.23;107597;1268;139130;-66
2022/06/18 03:51:27;;;;;;;8.30;5.60;;;;;;;16.33;58.89;100557.75;107841;1270;112509;-67
2022/06/18 03:53:57;;;;;;;8.20;5.30;;;;;;;16.41;58.89;100554.22;107749;1268;140480;-66
2022/06/18 03:56:29;;;;;;;6.90;5.10;;;;;;;16.48;58.74;100548.55;107867;1269;107182;-65
2022/06/18 03:58:58;;;;;;;7.10;4.90;;;;;;;16.56;58.80;100544.80;107782;1270;139839;-66
2022/06/18 04:01:29;;;;;;;9.40;5.10;;;;;;;16.66;58.82;100550.44;107795;1270;96439;-66
2022/06/18 04:03:59;;;;;;;8.40;5.40;;;;;;;16.77;58.78;100546.16;106398;1271;112079;-65
2022/06/18 04:06:42;;;;;;;10.50;5.10;;;;;;;16.90;58.73;100548.66;106252;1271;140302;-66
2022/06/18 04:09:42;;;;;;;6.90;4.60;;;;;;;17.04;58.49;100552.52;107779;1270;107922;-66
2022/06/18 04:12:12;;;;;;;7.30;5.10;;;;;;;17.14;58.39;100551.25;107714;1270;139351;-66
2022/06/18 04:14:57;;;;;;;6.60;5.30;;;;;;;17.23;58.09;100555.49;107797;1270;96165;-67
2022/06/18 04:17:41;;;;;;;9.30;4.90;;;;;;;17.34;58.04;100556.80;107684;1271;138544;-66
2022/06/18 04:20:19;;;;;;;8.80;5.10;;;;;;;17.47;57.90;100559.96;107842;1271;108883;-67
2022/06/18 04:22:48;;;;;;;5.90;4.30;;;;;;;17.62;57.75;100559.16;107759;1271;106430;-67
2022/06/18 04:25:17;;;;;;;6.20;4.20;;;;;;;17.69;57.21;100561.20;107700;1271;138594;-66
2022/06/18 04:27:46;;;;;;;7.60;4.70;;;;;;;17.78;57.00;100559.27;107057;1271;96380;-65
2022/06/18 04:30:18;;;;;;;6.40;4.10;;;;;;;17.92;56.85;100558.63;107643;1270;138558;-67
2022/06/18 04:32:58;;;;;;;5.60;3.60;;;;;;;18.05;56.26;100554.04;107897;1270;106041;-67
2022/06/18 04:35:28;;;;;;;6.00;3.90;;;;;;;18.13;56.13;100549.69;106382;1271;138572;-66
2022/06/18 04:38:04;;;;;;;6.10;3.70;;;;;;;18.26;56.07;100545.91;106376;1270;97834;-66
2022/06/18 04:40:42;;;;;;;6.40;3.90;;;;;;;18.41;55.80;100543.96;107864;1269;96131;-65
2022/06/18 04:43:35;;;;;;;4.30;3.60;;;;;;;18.57;55.37;100542.29;107773;1271;112981;-66
2022/06/18 04:46:04;;;;;;;8.60;3.90;;;;;;;18.70;55.23;100544.54;106887;1271;109046;-67
2022/06/18 04:48:33;;;;;;;5.50;3.60;;;;;;;18.81;54.83;100544.39;107777;1270;138707;-66
2022/06/18 04:51:02;;;;;;;5.10;3.10;;;;;;;18.94;54.68;100544.10;106717;1270;97854;-66
2022/06/18 04:53:30;;;;;;;7.20;4.00;;;;;;;19.04;54.20;100539.25;106144;1271;138884;-66
2022/06/18 04:56:09;;;;;;;5.00;3.40;;;;;;;19.16;54.02;100539.92;106397;1270;112693;-66
2022/06/18 04:58:41;;;;;;;5.70;3.10;;;;;;;19.31;53.99;100539.48;106370;1271;108943;-65
2022/06/18 05:01:13;;;;;;;6.50;4.80;;;;;;;19.48;53.83;100538.95;106804;1270;137958;-66
2022/06/18 05:04:02;;;;;;;6.10;3.20;;;;;;;19.67;53.34;100539.09;106722;1270;97823;-67
2022/06/18 05:06:38;;;;;;;4.90;3.20;;;;;;;19.79;52.60;100532.16;106260;1270;139059;-66
2022/06/18 05:09:19;;;;;;;6.40;2.60;;;;;;;19.87;51.88;100532.80;106341;1270;111987;-65
2022/06/18 05:12:12;;;;;;;6.30;2.40;;;;;;;19.92;51.46;100531.66;107756;1270;138147;-66
2022/06/18 05:14:47;;;;;;;4.70;2.80;;;;;;;19.99;51.36;100527.82;107834;1270;108891;-67
2022/06/18 05:17:22;;;;;;;4.40;2.40;;;;;;;20.17;51.19;100530.83;107676;1270;138172;-66
2022/06/18 05:19:52;;;;;;;3.00;2.10;;;;;;;20.33;50.80;100535.92;107826;1270;96076;-66
2022/06/18 05:22:21;;;;;;;5.10;2.20;;;;;;;20.41;50.05;100528.51;107802;1270;112704;-66
2022/06/18 05:24:51;;;;;;;3.40;2.10;;;;;;;20.55;49.68;100531.48;107677;1271;139336;-66
2022/06/18 05:27:25;;;;;;;4.50;2.70;;;;;;;20.71;49.32;100529.13;106283;1271;109591;-67
2022/06/18 05:29:55;;;;;;;3.20;2.10;;;;;;;20.84;49.03;100534.18;106230;1271;138074;-66
2022/06/18 05:32:27;;;;;;;5.90;2.20;;;;;;;21.00;48.91;100527.23;106277;1271;97836;-66
2022/06/18 05:34:55;;;;;;;7.00;2.30;;;;;;;21.18;48.73;100529.63;106298;1268;138505;-66
2022/06/18 05:37:27;;;;;;;3.00;2.10;;;;;;;21.35;48.29;100530.02;106373;1269;107696;-67
2022/06/18 05:39:56;;;;;;;4.60;2.30;;;;;;;21.44;47.63;100526.95;107785;1271;107663;-65
2022/06/18 05:42:25;;;;;;;7.50;2.90;;;;;;;21.60;47.47;100526.99;107388;1270;137980;-67
2022/06/18 05:44:57;;;;;;;6.40;3.00;;;;;;;21.78;47.03;100523.32;106590;1270;97924;-65
2022/06/18 05:47:27;;;;;;;3.50;2.50;;;;;;;22.01;47.05;100522.02;106373;1271;138523;-66
2022/06/18 05:49:56;;;;;;;8.20;4.40;;;;;;;22.22;46.72;100523.04;106421;1270;108461;-66
2022/06/18 05:52:29;;;;;;;5.50;2.80;;;;;;;22.48;46.64;100523.69;106538;1270;108899;-66
2022/06/18 05:55:02;;;;;;;7.10;3.50;;;;;;;22.58;45.61;100528.17;107671;1271;138152;-66
2022/06/18 05:57:46;;;;;;;9.10;2.80;;;;;;;22.62;45.62;100531.48;107803;1271;96632;-66
2022/06/18 06:00:26;;;;;;;4.20;2.60;;;;;;;22.72;45.44;100528.42;107134;1271;138218;-67
2022/06/18 06:02:54;;;;;;;5.10;2.60;;;;;;;23.28;45.34;100528.38;106279;1271;108870;-65
2022/06/18 06:05:25;;;;;;;4.70;2.90;;;;;;;24.03;44.69;100519.55;106885;1270;138683;-65
2022/06/18 06:07:54;;;;;;;3.60;2.80;;;;;;;24.97;43.43;100516.78;106740;1271;97846;-65
2022/06/18 06:13:12;;;;;;;4.30;2.80;;;;;;;26.54;40.91;100511.20;106142;1271;137793;-65
2022/06/18 06:15:41;;;;;;;4.20;2.60;;;;;;;27.27;39.27;100512.20;106336;1271;108007;-65
2022/06/18 06:18:12;;;;;;;7.60;2.30;;;;;;;28.09;38.49;100508.09;106259;1271;138011;-66
2022/06/18 06:20:43;;;;;;;5.00;2.40;;;;;;;29.26;37.31;100502.45;106389;1271;97902;-65
2022/06/18 06:23:12;;;;;;;4.00;2.10;;;;;;;30.86;35.77;100496.95;106153;1271;138430;-66
2022/06/18 06:25:43;;;;;;;3.80;2.20;;;;;;;32.26;32.97;100487.11;106432;1270;111594;-66
2022/06/18 06:28:14;;;;;;;5.60;2.20;;;;;;;33.10;31.45;100488.96;107170;1270;108291;-66
2022/06/18 06:30:43;;;;;;;5.10;2.30;;;;;;;33.93;30.02;100483.39;106729;1270;138972;-66
2022/06/18 06:33:12;;;;;;;5.40;2.30;;;;;;;34.30;28.64;100481.48;106310;1270;97924;-66
2022/06/18 06:35:42;;;;;;;2.90;1.70;;;;;;;34.02;28.62;100484.22;106243;1271;138021;-67
2022/06/18 06:38:11;;;;;;;3.00;1.90;;;;;;;33.15;28.00;100480.07;106265;1271;111833;-68
2022/06/18 06:40:43;;;;;;;6.90;1.80;;;;;;;32.54;28.62;100473.16;106435;1271;109048;-66
2022/06/18 06:43:13;;;;;;;3.80;1.80;;;;;;;32.30;28.90;100477.33;107756;1270;138104;-66
2022/06/18 06:45:43;;;;;;;5.30;2.30;;;;;;;32.43;29.63;100462.20;107795;1271;96119;-66
2022/06/18 06:48:11;;;;;;;8.60;2.10;;;;;;;32.86;29.52;100462.58;107757;1270;137770;-66
2022/06/18 06:50:41;;;;;;;2.60;2.10;;;;;;;33.37;29.26;100464.03;107844;1270;112582;-66
2022/06/18 06:53:11;;;;;;;3.10;1.80;;;;;;;33.71;28.91;100460.76;107779;1270;138968;-67
2022/06/18 06:58:26;;;;;;;3.70;2.10;;;;;;;35.72;26.93;100460.58;107897;1269;96027;-66
2022/06/18 07:00:57;;;;;;;3.60;2.10;;;;;;;36.35;25.93;100449.66;107813;1268;138518;-66
2022/06/18 07:03:27;;;;;;;7.20;3.80;;;;;;;36.23;25.80;100444.05;107891;1270;112195;-66
2022/06/18 07:05:57;;;;;;;5.90;2.00;;;;;;;36.33;25.71;100451.17;107733;1271;138677;-65
2022/06/18 07:08:25;;;;;;;6.10;2.40;;;;;;;36.66;25.21;100449.41;107916;1270;108995;-66
2022/06/18 07:10:54;;;;;;;3.90;2.10;;;;;;;36.91;24.66;100454.10;107809;1270;138125;-67
2022/06/18 07:13:30;;;;;;;3.60;2.10;;;;;;;37.14;24.70;100448.21;107878;1270;96353;-66
2022/06/18 07:15:59;;;;;;;4.50;2.50;;;;;;;37.39;24.29;100449.55;107469;1271;112333;-66
2022/06/18 07:18:31;;;;;;;3.80;2.00;;;;;;;37.55;24.03;100449.05;106250;1271;138894;-66
2022/06/18 07:21:01;;;;;;;3.00;1.60;;;;;;;37.73;23.69;100444.77;107694;1270;108606;-66
2022/06/18 07:23:30;;;;;;;3.90;2.60;;;;;;;37.77;23.52;100446.60;106302;1271;138462;-67
2022/06/18 07:25:59;;;;;;;5.80;3.20;;;;;;;37.60;23.47;100437.77;106449;1271;97816;-66
2022/06/18 07:28:28;;;;;;;6.40;1.90;;;;;;;37.16;23.61;100440.17;106432;1271;111496;-65
2022/06/18 07:30:57;;;;;;;3.30;2.00;;;;;;;36.71;23.93;100438.73;106765;1270;138567;-66
2022/06/18 07:33:28;;;;;;;3.50;2.00;;;;;;;36.23;24.22;100436.92;106381;1270;108993;-66
2022/06/18 07:35:57;;;;;;;3.30;1.80;;;;;;;36.18;24.47;100438.23;106815;1270;139339;-66
2022/06/18 07:38:25;;;;;;;6.50;2.60;;;;;;;36.01;24.26;100433.61;106426;1271;97806;-66
2022/06/18 07:40:55;;;;;;;7.80;2.30;;;;;;;35.46;24.53;100438.05;106348;1270;139200;-66
2022/06/18 07:43:31;;;;;;;3.70;1.90;;;;;;;35.06;24.68;100441.95;106456;1271;108435;-66
2022/06/18 07:45:59;;;;;;;;;;;;;;;34.67;24.86;100443.14;106393;1271;109016;-66
2022/06/18 07:48:28;;;;;;;7.00;2.70;;;;;;;34.07;25.39;100444.09;106233;1271;124501;-66
2022/06/18 07:50:56;;;;;;;4.10;2.10;;;;;;;33.53;25.78;100451.72;106393;1271;97937;-67
2022/06/18 07:53:26;;;;;;;4.80;2.20;;;;;;;32.88;25.98;100449.92;106279;1271;138176;-68
2022/06/18 07:55:56;;;;;;;4.90;3.30;;;;;;;32.38;26.25;100443.90;106435;1271;108685;-66
2022/06/18 07:58:26;;;;;;;4.40;2.70;;;;;;;31.97;26.93;100451.45;106376;1271;108895;-67
2022/06/18 08:00:56;;;;;;;4.80;2.70;;;;;;;31.36;27.11;100450.29;106265;1271;137984;-67
2022/06/18 08:03:25;;;;;;;6.20;2.10;;;;;;;30.73;27.76;100449.87;106336;1271;97725;-65
2022/06/18 08:05:55;;;;;;;6.80;3.60;;;;;;;30.25;28.25;100449.89;107727;1271;138132;-67
2022/06/18 08:08:24;;;;;;;4.40;2.20;;;;;;;29.95;28.92;100452.38;107883;1270;108922;-67
2022/06/18 08:11:11;;;;;;;4.40;2.30;;;;;;;29.53;29.18;100455.69;107753;1270;138225;-68
2022/06/18 08:13:40;;;;;;;7.20;4.00;;;;;;;29.22;29.49;100455.29;107890;1271;96110;-67
2022/06/18 08:16:10;;;;;;;3.60;2.90;;;;;;;28.95;30.07;100455.34;107863;1270;96083;-67
2022/06/18 08:18:39;;;;;;;5.80;2.80;;;;;;;28.81;30.75;100449.92;107763;1270;137880;-66
2022/06/18 08:21:11;;;;;;;3.50;2.40;;;;;;;28.76;30.79;100454.41;107957;1271;107341;-67
2022/06/18 08:23:40;;;;;;;7.60;2.60;;;;;;;28.54;30.87;100456.79;107788;1269;138726;-67
2022/06/18 08:26:09;;;;;;;6.80;3.00;;;;;;;28.14;31.37;100462.89;107655;1268;336712;-67
2022/06/18 08:28:39;;;;;;;4.30;2.60;;;;;;;27.91;31.69;100460.20;107875;1270;96135;-67
2022/06/18 08:31:09;;;;;;;4.40;2.70;;;;;;;27.82;32.10;100457.04;107733;1271;138855;-67
2022/06/18 08:33:38;;;;;;;6.40;2.20;;;;;;;27.68;32.55;100459.18;107863;1270;109020;-67
2022/06/18 08:36:09;;;;;;;4.10;2.30;;;;;;;27.54;32.17;100455.16;107748;1270;139025;-66
2022/06/18 08:38:40;;;;;;;4.00;2.20;;;;;;;27.37;32.71;100458.45;107862;1270;96121;-66
2022/06/18 08:41:34;;;;;;;3.00;2.00;;;;;;;27.25;32.69;100451.86;107764;1270;138449;-67
2022/06/18 08:44:19;;;;;;;6.70;1.80;;;;;;;27.13;32.69;100448.38;107865;1270;110941;-67
2022/06/18 08:46:55;;;;;;;5.00;2.10;;;;;;;26.98;32.45;100447.67;107869;1270;108878;-67
2022/06/18 08:49:41;;;;;;;2.40;2.20;;;;;;;26.74;32.77;100446.33;107863;1270;109131;-67
2022/06/18 08:52:26;;;;;;;10.70;5.90;;;;;;;26.51;33.29;100445.08;107845;1270;95986;-67
2022/06/18 08:55:02;;;;;;;5.50;2.80;;;;;;;26.46;33.56;100444.66;107737;1270;137915;-67
2022/06/18 08:57:36;;;;;;;4.50;2.10;;;;;;;26.47;33.45;100448.37;107854;1270;111980;-67
2022/06/18 09:00:12;;;;;;;7.30;4.50;;;;;;;26.47;33.71;100451.17;107737;1270;137948;-67
2022/06/18 09:02:48;;;;;;;7.50;4.00;;;;;;;26.54;33.68;100447.68;107918;1270;108725;-67
2022/06/18 09:05:47;;;;;;;6.40;5.40;;;;;;;26.60;33.39;100440.69;106295;1268;138229;-67
2022/06/18 09:08:26;;;;;;;4.40;3.10;;;;;;;26.58;33.10;100434.36;107842;1270;96017;-67
2022/06/18 09:11:18;;;;;;;3.60;2.40;;;;;;;26.50;33.23;100434.69;106208;1271;137987;-66
2022/06/18 09:13:57;;;;;;;3.30;2.40;;;;;;;26.36;33.30;100431.21;107853;1270;106622;-65
2022/06/18 09:16:32;;;;;;;7.70;4.90;;;;;;;26.30;33.42;100433.59;106551;1271;109005;-66
2022/06/18 09:19:03;;;;;;;7.00;3.00;;;;;;;26.25;33.93;100427.67;107763;1270;138565;-66
2022/06/18 09:21:37;;;;;;;6.20;3.00;;;;;;;26.24;33.78;100424.39;107683;1270;96551;-67
2022/06/18 09:24:09;;;;;;;5.20;2.30;;;;;;;26.31;34.11;100421.51;106287;1271;137980;-68
2022/06/18 09:26:41;;;;;;;5.90;3.10;;;;;;;26.47;33.99;100421.98;107094;1271;109521;-67
2022/06/18 09:29:18;;;;;;;5.20;2.20;;;;;;;26.67;33.71;100417.92;106341;1270;138201;-67
2022/06/18 09:31:51;;;;;;;2.90;2.20;;;;;;;26.81;33.16;100416.55;106314;1271;97876;-65
2022/06/18 09:34:26;;;;;;;4.50;2.80;;;;;;;26.80;33.18;100416.96;106341;1271;97857;-66
2022/06/18 09:36:58;;;;;;;5.50;3.00;;;;;;;26.86;33.37;100409.27;106158;1271;139328;-67
2022/06/18 09:39:33;;;;;;;5.30;2.30;;;;;;;27.02;33.23;100397.48;107213;1271;107736;-67
2022/06/18 09:42:07;;;;;;;7.60;2.90;;;;;;;27.14;32.89;100393.67;106294;1271;138531;-67
2022/06/18 09:44:41;;;;;;;3.50;1.90;;;;;;;27.26;32.66;100385.11;106338;1271;99447;-66
2022/06/18 09:47:13;;;;;;;4.10;2.20;;;;;;;27.28;32.41;100384.98;106188;1271;139084;-68
2022/06/18 09:49:44;;;;;;;4.70;2.30;;;;;;;27.26;32.26;100384.82;106342;1271;112136;-67
2022/06/18 09:52:18;;;;;;;3.20;2.10;;;;;;;27.34;32.40;100380.59;106674;1271;109625;-66
2022/06/18 09:54:51;;;;;;;4.70;2.20;;;;;;;27.47;31.84;100376.25;106130;1271;140389;-65
2022/06/18 09:57:23;;;;;;;3.90;2.20;;;;;;;27.82;31.86;100368.55;106274;1271;97826;-68
2022/06/18 10:00:05;;;;;;;5.60;2.40;;;;;;;28.21;30.81;100366.52;106183;1271;137817;-66
2022/06/18 10:02:41;;;;;;;3.50;1.80;;;;;;;28.31;30.65;100362.61;106370;1271;112359;-65
2022/06/18 10:08:09;;;;;;;3.40;1.80;;;;;;;28.57;30.63;100352.89;106293;1271;108921;-65
2022/06/18 10:10:42;;;;;;;6.40;2.10;;;;;;;28.84;30.26;100351.27;106238;1271;97819;-66
2022/06/18 10:13:18;;;;;;;5.50;2.20;;;;;;;28.94;30.19;100350.60;107614;1271;137828;-67
2022/06/18 10:15:47;;;;;;;3.40;2.20;;;;;;;28.94;29.90;100341.61;106523;1271;112001;-65
2022/06/18 10:18:34;;;;;;;4.60;1.90;;;;;;;29.05;30.07;100340.45;106152;1271;138189;-67
2022/06/18 10:21:10;;;;;;;5.40;1.80;;;;;;;29.34;30.54;100334.91;106269;1271;109194;-66
2022/06/18 10:23:49;;;;;;;3.90;3.00;;;;;;;29.74;30.17;100336.08;106108;1271;138228;-66
2022/06/18 10:26:29;;;;;;;5.40;1.90;;;;;;;30.06;29.38;100335.48;106311;1271;97810;-66
2022/06/18 10:29:07;;;;;;;4.00;2.60;;;;;;;30.15;28.91;100328.45;107747;1270;138002;-65
2022/06/18 10:31:51;;;;;;;3.70;2.50;;;;;;;30.20;29.10;100323.74;107848;1271;107926;-67
2022/06/18 10:34:32;;;;;;;4.20;2.20;;;;;;;30.32;28.82;100320.69;107891;1270;107682;-66
2022/06/18 10:37:10;;;;;;;4.70;2.30;;;;;;;30.24;28.40;100317.75;107776;1268;138620;-66
2022/06/18 10:40:05;;;;;;;5.10;3.30;;;;;;;30.03;28.57;100315.58;107868;1269;96523;-66
2022/06/18 10:42:52;;;;;;;4.90;2.70;;;;;;;29.89;28.59;100310.88;107727;1270;138332;-66
2022/06/18 10:45:29;;;;;;;8.20;2.00;;;;;;;29.79;28.79;100313.45;106340;1271;108175;-66
2022/06/18 10:47:59;;;;;;;3.80;1.80;;;;;;;29.62;28.73;100312.35;106952;1270;137994;-66
2022/06/18 10:50:28;;;;;;;4.00;2.30;;;;;;;29.31;29.09;100310.20;107837;1271;96723;-66
2022/06/18 10:53:04;;;;;;;3.70;2.10;;;;;;;29.12;29.01;100306.85;106207;1271;138338;-66
2022/06/18 10:55:33;;;;;;;5.30;3.00;;;;;;;28.94;29.10;100308.81;106365;1271;112163;-66
2022/06/18 10:58:10;;;;;;;3.40;1.80;;;;;;;28.75;29.29;100311.21;106340;1271;107243;-66
2022/06/18 11:00:39;;;;;;;2.00;1.60;;;;;;;28.65;29.65;100310.87;107717;1271;138041;-66
2022/06/18 11:03:20;;;;;;;4.80;2.40;;;;;;;28.65;29.57;100308.02;106411;1271;97913;-65
2022/06/18 11:05:49;;;;;;;3.90;1.60;;;;;;;28.70;29.47;100302.09;106832;1271;138570;-66
2022/06/18 11:08:25;;;;;;;3.70;1.90;;;;;;;28.75;29.71;100297.48;107313;1270;112472;-67
2022/06/18 11:10:57;;;;;;;2.50;1.60;;;;;;;28.84;30.00;100295.59;107725;1269;138056;-68
2022/06/18 11:13:30;;;;;;;2.80;1.70;;;;;;;28.95;29.36;100296.20;107904;1269;108877;-68
2022/06/18 11:16:11;;;;;;;3.20;2.00;;;;;;;29.00;28.90;100296.06;107854;1270;96082;-67
2022/06/18 11:18:49;;;;;;;4.70;2.80;;;;;;;28.88;28.39;100293.33;107750;1270;138500;-66
2022/06/18 11:21:25;;;;;;;5.50;1.60;;;;;;;28.86;28.02;100291.40;107873;1270;112548;-66
2022/06/18 11:23:58;;;;;;;2.60;1.70;;;;;;;28.72;28.63;100289.21;107800;1270;138336;-66
2022/06/18 11:26:44;;;;;;;3.70;1.90;;;;;;;28.78;28.54;100287.30;107887;1269;107749;-65
2022/06/18 11:29:24;;;;;;;3.10;1.90;;;;;;;28.73;28.74;100281.39;107737;1270;138672;-66
2022/06/18 11:31:57;;;;;;;3.70;2.10;;;;;;;28.66;29.21;100279.48;107845;1270;96234;-66
2022/06/18 11:34:28;;;;;;;5.50;2.40;;;;;;;28.66;29.47;100279.51;107907;1269;111381;-67
2022/06/18 11:36:58;;;;;;;4.00;1.80;;;;;;;28.70;29.72;100284.61;106869;1271;138058;-68
2022/06/18 11:39:36;;;;;;;6.50;3.80;;;;;;;28.78;29.66;100282.96;106618;1271;106664;-68
2022/06/18 11:42:14;;;;;;;4.30;1.80;;;;;;;28.87;29.28;100280.00;107295;1270;138912;-66
2022/06/18 11:44:52;;;;;;;6.10;2.40;;;;;;;28.82;29.20;100276.25;107932;1269;96008;-66
2022/06/18 11:47:27;;;;;;;4.10;1.80;;;;;;;28.69;29.37;100270.39;107776;1270;138288;-67